• Join FlightAware (Why Join?)
  • Login
  • US Flag 
10:01PM EDT


 

Airport Tracker/Info


-or-


 

Live Flight TrackerFlight Track Log ✈ UPS1331 ✈ 15-May-2013 ✈ KMIA - KSDF

Flight Track Log - Related Links

Times and Time Zones

All times are in EDT time to prevent confusion due to time zone crossing. See the UPS1331 flight status page for this flight to view local times or setup timezone preferences in your user account.

Time Position Orientation Groundspeed Altitude Reporting Facility
EDT Latitude Longitude Course Direction KTS MPH feet Rate Location/Type
10:26PM 25.8010 -80.2760 90° East 154 177 600  Level FlightAware
10:27PM 25.8030 -80.2510 85° East 179 206 1,800 2,400 Climbing FlightAware
10:27PM 25.8050 -80.2210 86° East 210 242 3,000 2,400 Climbing FlightAware
10:28PM 25.8090 -80.1870 83° East 242 278 4,200 2,520 Climbing FlightAware
10:28PM 25.8100 -80.1740 85° East 249 287 4,700 3,120 Climbing FlightAware
10:28PM 25.8170 -80.1550 68° East 262 302 5,500 3,180 Climbing FlightAware
10:28PM 25.8310 -80.1430 38° Northeast 269 310 6,300 3,120 Climbing FlightAware
10:29PM 25.8430 -80.1410 North 274 315 6,800 3,000 Climbing FlightAware
10:29PM 25.8660 -80.1500 341° North 285 328 7,800 3,000 Climbing FlightAware
10:29PM 25.8750 -80.1610 312° West 289 333 8,300 3,600 Climbing FlightAware
10:29PM 25.8880 -80.1800 307° West 286 329 9,300 2,820 Climbing FlightAware
10:30PM 25.9180 -80.2320 303° West 310 357 10,900 1,860 Climbing FlightAware
10:31PM 25.9550 -80.2960 303° West 371 427 12,000 1,800 Climbing FlightAware
10:31PM 25.9890 -80.3540 303° West 403 464 13,300 2,940 Climbing FlightAware
10:32PM 26.0420 -80.4450 303° West 420 483 16,200 3,300 Climbing FlightAware
10:33PM 26.0850 -80.5200 303° West 435 501 18,300 3,000 Climbing FlightAware
10:34PM 26.1330 -80.6050 302° West 448 516 20,500 2,880 Climbing FlightAware
10:34PM 26.1730 -80.6750 302° West 454 522 22,200 2,700 Climbing FlightAware
10:35PM 26.2280 -80.7570 307° West 456 525 24,100 2,460 Climbing FlightAware
10:36PM 26.3010 -80.8160 324° Northwest 464 534 25,700 2,520 Climbing FlightAware
10:36PM 26.3850 -80.8700 330° Northwest 465 535 27,700 2,880 Climbing FlightAware
10:37PM 26.4670 -80.9230 330° Northwest 451 519 30,100 2,700 Climbing FlightAware
10:38PM 26.5860 -81.0080 327° Northwest 443 510 32,900 2,100 Climbing FlightAware
10:39PM 26.6590 -81.0600 328° Northwest 440 506 34,000 780 Climbing FlightAware
10:40PM 26.7260 -81.1070 328° Northwest 441 507 34,000  Level FlightAware
10:40PM 26.7970 -81.1450 334° Northwest 438 504 34,000  Level FlightAware
10:41PM 26.8850 -81.1880 336° Northwest 438 504 34,000  Level FlightAware
10:42PM 26.9920 -81.2370 338° Northwest 446 513 34,000  Level FlightAware
10:43PM 27.0690 -81.2710 339° North 438 504 34,000  Level FlightAware
10:43PM 27.1450 -81.3050 338° Northwest 438 504 34,000  Level FlightAware
10:44PM 27.2810 -81.3670 338° Northwest 449 517 34,000  Level FlightAware
10:45PM 27.3700 -81.4070 338° Northwest 449 517 34,000  Level FlightAware
10:46PM 27.4550 -81.4460 338° Northwest 450 518 34,000  Level FlightAware
10:47PM 27.5310 -81.4800 338° Northwest 450 518 34,000  Level FlightAware
10:47PM 27.6100 -81.5160 338° Northwest 449 517 34,000  Level FlightAware
10:48PM 27.6950 -81.5550 338° Northwest 450 518 34,000  Level FlightAware
10:49PM 27.7850 -81.5960 338° Northwest 450 518 34,000  Level FlightAware
10:49PM 27.8500 -81.6260 338° Northwest 449 517 34,000  Level FlightAware
10:50PM 27.9360 -81.6650 338° Northwest 449 517 34,000  Level FlightAware
10:51PM 28.0250 -81.7050 338° Northwest 449 517 34,000  Level FlightAware
10:51PM 28.1020 -81.7410 338° Northwest 449 517 34,000  Level FlightAware
10:52PM 28.1910 -81.7810 338° Northwest 448 516 34,000  Level FlightAware
10:53PM 28.2640 -81.8150 338° Northwest 447 514 34,000  Level FlightAware
10:54PM 28.3410 -81.8510 338° Northwest 447 514 34,000  Level FlightAware
10:54PM 28.4290 -81.8910 338° Northwest 448 516 34,000  Level FlightAware
10:55PM 28.5070 -81.9270 338° Northwest 447 514 34,000  Level FlightAware
10:56PM 28.5840 -81.9630 338° Northwest 447 514 34,000  Level FlightAware
10:56PM 28.6680 -82.0020 338° Northwest 448 516 34,000  Level FlightAware
10:57PM 28.7460 -82.0380 338° Northwest 448 516 34,000  Level FlightAware
10:58PM 28.8320 -82.0780 338° Northwest 448 516 34,000  Level FlightAware
10:58PM 28.9090 -82.1140 338° Northwest 448 516 34,000  Level FlightAware
10:59PM 28.9850 -82.1490 338° Northwest 447 514 34,000  Level FlightAware
11:00PM 29.0710 -82.1890 338° Northwest 447 514 34,000  Level FlightAware
11:01PM 29.1510 -82.2270 337° Northwest 448 516 34,000  Level FlightAware
11:01PM 29.2360 -82.2670 338° Northwest 448 516 34,000  Level FlightAware
11:02PM 29.3130 -82.3030 338° Northwest 449 517 34,000  Level FlightAware
11:03PM 29.3900 -82.3390 338° Northwest 450 518 34,000  Level FlightAware
11:03PM 29.4790 -82.3810 338° Northwest 450 518 34,000  Level FlightAware
11:04PM 29.5520 -82.4160 337° Northwest 449 517 34,000  Level FlightAware
11:05PM 29.6270 -82.4510 338° Northwest 449 517 34,000  Level FlightAware
11:05PM 29.7050 -82.4890 337° Northwest 449 517 34,000  Level FlightAware
11:06PM 29.7790 -82.5240 338° Northwest 440 506 34,000  Level FlightAware
11:07PM 29.8430 -82.5550 337° Northwest 440 506 34,000  Level FlightAware
11:07PM 29.9060 -82.5860 337° Northwest 440 506 34,000  Level FlightAware
11:08PM 30.0230 -82.6400 338° Northwest 440 506 34,000  Level FlightAware
11:09PM 30.0860 -82.6710 337° Northwest 440 506 34,000  Level FlightAware
11:10PM 30.1500 -82.7020 337° Northwest 440 506 34,000  Level FlightAware
11:10PM 30.2300 -82.7410 337° Northwest 440 506 34,000  Level FlightAware
11:11PM 30.2940 -82.7730 337° Northwest 440 506 34,000  Level FlightAware
11:12PM 30.3570 -82.8040 337° Northwest 440 506 34,000  Level FlightAware
11:12PM 30.4210 -82.8350 337° Northwest 440 506 34,000  Level FlightAware
11:13PM 30.4850 -82.8670 337° Northwest 440 506 34,000  Level FlightAware
11:14PM 30.5640 -82.9060 337° Northwest 440 506 34,000  Level FlightAware
11:15PM 30.6280 -82.9370 337° Northwest 440 506 34,000  Level FlightAware
11:15PM 30.6920 -82.9690 337° Northwest 440 506 34,000  Level FlightAware
11:16PM 30.7550 -83.0000 337° Northwest 440 506 34,000  Level FlightAware
11:17PM 30.8190 -83.0320 337° Northwest 440 506 34,000  Level FlightAware
11:17PM 30.8990 -83.0710 337° Northwest 440 506 34,000  Level FlightAware
11:19PM 31.2325 -83.2253 337° Northwest 460 529 34,000  Level Atlanta Center
11:20PM 31.3456 -83.2803 337° Northwest 454 522 34,000  Level Atlanta Center
11:21PM 31.4628 -83.3378 337° Northwest 454 522 34,000  Level Atlanta Center
11:22PM 31.5800 -83.3978 336° Northwest 454 522 34,000  Level Atlanta Center
11:23PM 31.6992 -83.4458 341° North 454 522 34,000  Level Atlanta Center
11:24PM 31.8289 -83.4767 349° North 454 522 34,000  Level Atlanta Center
11:25PM 31.9564 -83.5078 348° North 459 528 34,000  Level Atlanta Center
11:26PM 32.0817 -83.5364 349° North 459 528 34,000  Level Atlanta Center
11:31PM 32.7960 -83.7040 349° North 459 528 34,000  Level FlightAware
11:32PM 32.8800 -83.7240 349° North 459 528 34,000  Level FlightAware
11:33PM 32.9640 -83.7450 348° North 460 529 34,000  Level FlightAware
11:33PM 33.0640 -83.7680 349° North 460 529 34,000  Level FlightAware
11:34PM 33.1490 -83.7890 348° North 461 531 34,000  Level FlightAware
11:35PM 33.2450 -83.8120 349° North 461 531 34,000  Level FlightAware
11:36PM 33.3290 -83.8320 349° North 462 532 34,000  Level FlightAware
11:36PM 33.4230 -83.8550 348° North 463 533 34,000  Level FlightAware
11:37PM 33.5030 -83.8740 349° North 464 534 34,000  Level FlightAware
11:38PM 33.6010 -83.8980 348° North 464 534 34,000  Level FlightAware
11:38PM 33.6870 -83.9190 349° North 464 534 34,000  Level FlightAware
11:39PM 33.7700 -83.9390 349° North 464 534 34,000  Level FlightAware
11:39PM 33.8254 -83.9531 348° North 463 533 34,000  Level FlightAware ADS-B
11:40PM 33.8889 -83.9691 348° North 463 533 34,000  Level FlightAware ADS-B
11:40PM 33.9523 -83.9849 348° North 463 533 34,000  Level FlightAware ADS-B
11:41PM 34.0260 -84.0034 348° North 464 534 34,000  Level FlightAware ADS-B
11:42PM 34.0950 -84.0206 348° North 464 534 34,000  Level FlightAware ADS-B
11:42PM 34.1621 -84.0375 348° North 464 534 34,000  Level FlightAware ADS-B
11:43PM 34.2351 -84.0558 348° North 465 535 34,000  Level FlightAware ADS-B
11:43PM 34.3002 -84.0721 348° North 465 535 34,000  Level FlightAware ADS-B
11:44PM 34.3652 -84.0884 348° North 466 536 34,000  Level FlightAware ADS-B
11:44PM 34.4290 -84.1044 348° North 465 535 34,000  Level FlightAware ADS-B
11:45PM 34.4927 -84.1206 348° North 466 536 34,000  Level FlightAware ADS-B
11:45PM 34.5561 -84.1367 348° North 466 536 34,000  Level FlightAware ADS-B
11:46PM 34.6225 -84.1536 348° North 466 536 34,000  Level FlightAware ADS-B
11:46PM 34.6863 -84.1698 348° North 466 536 34,000  Level FlightAware ADS-B
11:47PM 34.7709 -84.1913 348° North 464 534 34,000  Level FlightAware ADS-B
11:47PM 34.8342 -84.2074 348° North 463 533 34,000  Level FlightAware ADS-B
11:48PM 34.8976 -84.2236 348° North 462 532 34,000  Level FlightAware ADS-B
11:48PM 34.9615 -84.2400 348° North 462 532 34,000  Level FlightAware ADS-B
11:49PM 35.0248 -84.2563 348° North 461 531 34,000  Level FlightAware ADS-B
11:49PM 35.0876 -84.2721 348° North 460 529 34,000  Level FlightAware ADS-B
11:50PM 35.1527 -84.2888 348° North 460 529 34,000  Level FlightAware ADS-B
11:51PM 35.2160 -84.3053 348° North 460 529 34,000  Level FlightAware ADS-B
11:51PM 35.2795 -84.3216 348° North 461 531 34,000  Level FlightAware ADS-B
11:52PM 35.3424 -84.3378 348° North 460 529 34,000  Level FlightAware ADS-B
11:52PM 35.4059 -84.3542 348° North 460 529 34,000  Level FlightAware ADS-B
11:53PM 35.4685 -84.3704 348° North 459 528 34,000  Level FlightAware ADS-B
11:53PM 35.5321 -84.3868 348° North 458 527 34,000  Level FlightAware ADS-B
11:54PM 35.5949 -84.4033 348° North 458 527 34,000  Level FlightAware ADS-B
11:54PM 35.6574 -84.4196 348° North 460 529 34,000  Level FlightAware ADS-B
11:55PM 35.7243 -84.4369 348° North 460 529 34,000  Level FlightAware ADS-B
11:55PM 35.7899 -84.4541 348° North 461 531 34,000  Level FlightAware ADS-B
11:56PM 35.8531 -84.4705 348° North 461 531 34,000  Level FlightAware ADS-B
11:56PM 35.9176 -84.4874 348° North 461 531 34,000 -420 Level FlightAware ADS-B
11:57PM 35.9804 -84.5040 348° North 461 531 33,600 -1,020 Descending FlightAware ADS-B
11:57PM 36.0472 -84.5215 348° North 460 529 33,000 -1,080 Descending FlightAware ADS-B
11:58PM 36.1101 -84.5380 348° North 460 529 32,500 -1,140 Descending FlightAware ADS-B
11:58PM 36.1729 -84.5545 348° North 461 531 31,900 -1,080 Descending FlightAware ADS-B
11:59PM 36.2411 -84.5725 348° North 460 529 31,400 -960 Descending FlightAware ADS-B
11:59PM 36.3050 -84.5896 348° North 459 528 30,900 -1,080 Descending FlightAware ADS-B
12:00AM 36.3730 -84.6075 348° North 460 529 30,300 -900 Descending FlightAware ADS-B
12:00AM 36.4392 -84.6252 348° North 464 534 30,000 -300 Descending FlightAware ADS-B
12:01AM 36.5055 -84.6427 348° North 468 539 30,000 -540 Level FlightAware ADS-B
12:01AM 36.5689 -84.6598 348° North 467 537 29,500 -900 Descending FlightAware ADS-B
12:02AM 36.6337 -84.6767 348° North 465 535 29,100 -1,320 Descending FlightAware ADS-B
12:02AM 36.6981 -84.6940 348° North 468 539 28,200 -2,040 Descending FlightAware ADS-B
12:03AM 36.7642 -84.7117 348° North 476 548 27,000 -2,460 Descending FlightAware ADS-B
12:03AM 36.8326 -84.7300 348° North 475 547 25,700 -2,040 Descending FlightAware ADS-B
12:04AM 36.8967 -84.7473 348° North 467 537 24,900 -1,500 Descending FlightAware ADS-B
12:04AM 36.9595 -84.7645 348° North 456 525 24,200 -1,500 Descending FlightAware ADS-B
12:05AM 37.0210 -84.7811 348° North 449 517 23,400 -1,680 Descending FlightAware ADS-B
12:05AM 37.0836 -84.7977 348° North 446 513 22,500 -2,400 Descending FlightAware ADS-B
12:06AM 37.1442 -84.8141 348° North 440 506 21,000 -3,060 Descending FlightAware ADS-B
12:06AM 37.2048 -84.8306 348° North 435 501 19,400 -3,060 Descending FlightAware ADS-B
12:07AM 37.2643 -84.8470 348° North 430 495 17,900 -1,080 Descending FlightAware ADS-B
12:08AM 37.3410 -84.8690 347° North 429 494 18,000 -2,160 Climbing FlightAware
12:09AM 37.4510 -84.8980 348° North 418 481 14,200 -2,400 Descending FlightAware
12:09AM 37.5150 -84.9170 347° North 418 481 14,200  Level FlightAware
12:10AM 37.5790 -84.9360 347° North 418 481 14,200 -1,140 Level FlightAware
12:14AM 37.8410 -85.2120 320° Northwest 244 281 8,600 -1,200 Descending FlightAware
12:15AM 37.8660 -85.2460 313° West 239 275 8,600  Level FlightAware
12:15AM 37.8780 -85.2640 310° West 239 275 8,600  Level FlightAware
12:15AM 37.8910 -85.2810 314° West 239 275 8,600 -1,440 Level FlightAware
12:16AM 37.9140 -85.3140 311° West 221 254 7,400 -1,020 Descending FlightAware
12:18AM 38.0030 -85.4360 313° West 225 259 6,000 -600 Descending FlightAware
12:18AM 38.0200 -85.4600 312° West 223 257 6,000  Level FlightAware
12:19AM 38.0420 -85.4910 312° West 226 260 6,000  Level FlightAware
12:19AM 38.0590 -85.5150 312° West 223 257 6,000  Level FlightAware
12:20AM 38.0800 -85.5440 313° West 225 259 6,000  Level FlightAware
12:20AM 38.1010 -85.5730 313° West 227 261 6,000 -420 Level FlightAware
12:21AM 38.1160 -85.5830 332° Northwest 230 265 5,700 -1,080 Descending FlightAware
12:21AM 38.1410 -85.5940 341° North 232 267 5,300 -1,200 Descending FlightAware
12:21AM 38.1580 -85.6010 342° North 232 267 4,900 -1,200 Descending FlightAware
12:22AM 38.1830 -85.6110 343° North 232 267 4,500 -900 Descending FlightAware
12:22AM 38.2130 -85.6220 344° North 227 261 4,100 -540 Descending FlightAware
12:23AM 38.2430 -85.6320 345° North 226 260 4,000 -120 Descending FlightAware
12:23AM 38.2670 -85.6410 344° North 226 260 4,000  Level FlightAware
12:24AM 38.2980 -85.6520 344° North 227 261 4,000  Level FlightAware
12:24AM 38.3280 -85.6630 344° North 227 261 4,000  Level FlightAware
12:25AM 38.3550 -85.6730 344° North 229 264 4,000  Level FlightAware
12:25AM 38.3690 -85.6780 344° North 230 265 4,000  Level FlightAware
12:25AM 38.4000 -85.6890 344° North 228 262 4,000  Level FlightAware
12:26AM 38.4260 -85.6990 343° North 229 264 4,000  Level FlightAware
12:26AM 38.4400 -85.7050 341° North 229 264 4,000  Level FlightAware
12:26AM 38.4680 -85.7200 337° Northwest 216 249 4,000  Level FlightAware
12:27AM 38.4750 -85.7370 298° West 207 238 4,000  Level FlightAware
12:27AM 38.4690 -85.7650 255° West 206 237 4,000  Level FlightAware
12:27AM 38.4570 -85.7740 210° Southwest 213 245 4,000  Level FlightAware
12:28AM 38.4340 -85.7850 201° Southwest 196 226 4,000  Level FlightAware
12:28AM 38.4200 -85.7880 190° South 194 223 4,000  Level FlightAware
12:29AM 38.3930 -85.7960 193° South 195 224 4,000  Level FlightAware
12:29AM 38.3840 -85.7970 185° South 198 228 4,000  Level FlightAware
12:29AM 38.3580 -85.7900 168° South 187 215 4,000 -540 Level FlightAware
12:30AM 38.3320 -85.7810 165° South 185 213 3,500 -1,020 Descending FlightAware
12:30AM 38.3130 -85.7750 166° South 179 206 3,100 -1,080 Descending FlightAware
12:30AM 38.3020 -85.7710 164° South 175 201 2,800 -960 Descending FlightAware
12:31AM 38.2780 -85.7620 164° South 168 193 2,400 -900 Descending FlightAware
12:31AM 38.2600 -85.7560 165° South 150 173 2,000 -780 Descending FlightAware
12:32AM 38.2420 -85.7500 165° South 135 155 1,700 -720 Descending FlightAware
12:32AM 38.2240 -85.7440 165° South 131 151 1,300 -780 Descending FlightAware
12:33AM 38.2090 -85.7390 165° South 131 151 1,000 -660 Descending FlightAware
12:33AM 38.1900 -85.7320 164° South 136 157 700 -600 Descending FlightAware